首页
METAR-TAF:

METAR-TAF

机场 :

印第安纳波利斯国际机场

印第安納波利斯, 印第安纳州, 美国

纬度: 39-43-30N, 经度: 086-16-55W, 海拔: 243米

当前天气观测

该预报发布于31分钟前的08:54 UTC
风速3节,风向西南
温度 12°C
湿度 76%
气压 1009 hPa
能見度: 16.1公里
少量云层高于7500英尺
多云层高于11000英尺

METAR: KIND 200854Z 22003KT 10SM FEW075 BKN110 12/08 A2980 RMK AO2 SLP088 60000 T01170083 53005

时间: 05:25 (09:25 UTC)

预报

该预报发布于1小时和9分钟前的08:16 UTC
预报有效从20日的 08点(UTC)到 21日的 12点(UTC)
风速4节,风向多变
能見度: 10公里
散云层高于5000英尺
多云层高于10000英尺
从 20日的 1400点(UTC)
风速4节,风向多变
能見度: 10公里
多云层高于4000英尺
从 21日的 0400点(UTC)
风速5节,风向南转南东
能見度: 10公里
多云层高于18000英尺
从 21日的 0800点(UTC)
风速8节,风向东南
能見度: 10公里
多云层高于4000英尺

TAF: KIND 200816Z 2008/2112 VRB04KT P6SM SCT050 BKN100 FM201400 VRB04KT P6SM BKN040 FM210400 15005KT P6SM BKN180 FM210800 14008KT P6SM BKN040

超过4000个机场的气象观测和天气预报(METAR&TAF报告)。

可查询的气象台以黄色和红色小点在地图上表示。

将鼠标移到小点上方,可查看气象台名称。

然后点击查看天气观测和预报。

如需切换地图:点击带黑十字的绿色按钮放大地图;点击带横线的绿色按钮缩小地图;或者点击绿色箭头查看邻近地区的地图。


METAR-TAF: